Time;durP1;ratioP1;P1;durP2;ratioP2;P2;SDS_P1;SDS_P2;PMS_P1;PMS_P2;Temp;Humidity;BMP_temperature;BMP_pressure;BME280_temperature;BME280_humidity;BME280_pressure;Samples;Min_cycle;Max_cycle;Signal;HPM_P1;HPM_P2
2022/01/23 00:00:16;;;;;;;15.70;8.57;;;;;;;7.49;100.00;103560.22;5102574;28;20090;-67
2022/01/23 00:02:41;;;;;;;15.30;8.60;;;;;;;7.10;100.00;103569.66;5091854;28;20423;-67
2022/01/23 00:05:08;;;;;;;15.75;8.30;;;;;;;7.48;100.00;103559.38;5081229;28;20053;-69
2022/01/23 00:07:34;;;;;;;13.38;8.18;;;;;;;7.54;100.00;103566.81;5082555;28;20512;-68
2022/01/23 00:10:05;;;;;;;15.52;8.05;;;;;;;7.23;100.00;103575.31;5082601;28;20028;-68
2022/01/23 00:12:36;;;;;;;14.75;8.40;;;;;;;7.34;100.00;103565.75;5064167;28;20053;-67
2022/01/23 00:17:47;;;;;;;12.30;7.53;;;;;;;7.84;100.00;103563.09;5083841;28;20205;-67
2022/01/23 00:20:12;;;;;;;18.90;7.75;;;;;;;7.91;100.00;103563.97;5064150;28;20052;-68
2022/01/23 00:30:42;;;;;;;14.27;7.43;;;;;;;7.82;100.00;103543.31;5105098;28;20092;-68
2022/01/23 00:33:09;;;;;;;12.82;8.32;;;;;;;8.06;100.00;103552.97;5102516;28;20096;-68
2022/01/23 00:35:37;;;;;;;12.27;7.40;;;;;;;8.01;100.00;103559.00;5094389;28;20044;-69
2022/01/23 00:38:06;;;;;;;12.15;8.02;;;;;;;7.91;100.00;103553.06;5080912;28;20067;-68
2022/01/23 00:40:34;;;;;;;10.52;7.68;;;;;;;7.74;100.00;103552.50;5082514;28;20360;-68
2022/01/23 00:43:00;;;;;;;10.70;7.72;;;;;;;7.91;100.00;103553.88;5082958;28;20038;-68
2022/01/23 00:45:35;;;;;;;13.98;7.20;;;;;;;7.90;100.00;103548.63;5083696;28;20323;-67
2022/01/23 00:48:08;;;;;;;14.23;7.60;;;;;;;7.52;100.00;103546.19;5067264;28;20118;-68
2022/01/23 00:50:36;;;;;;;12.02;7.10;;;;;;;7.80;100.00;103546.22;5083307;28;20482;-67
2022/01/23 00:53:02;;;;;;;10.65;7.05;;;;;;;8.00;100.00;103540.09;5079041;28;20024;-67
2022/01/23 00:55:28;;;;;;;11.35;6.90;;;;;;;7.98;100.00;103532.09;5082348;28;20219;-68
2022/01/23 00:57:53;;;;;;;17.08;7.85;;;;;;;7.98;100.00;103531.25;5100709;28;20027;-67
2022/01/23 01:00:19;;;;;;;13.07;7.63;;;;;;;8.08;100.00;103537.19;5084604;28;20026;-67
2022/01/23 01:02:44;;;;;;;12.32;7.00;;;;;;;7.93;100.00;103540.03;5104407;28;20058;-68
2022/01/23 01:05:10;;;;;;;15.35;7.60;;;;;;;7.98;100.00;103545.75;5102210;28;20039;-67
2022/01/23 01:07:36;;;;;;;13.23;7.97;;;;;;;7.84;100.00;103539.34;5072391;28;20502;-67
2022/01/23 01:10:08;;;;;;;14.18;7.88;;;;;;;7.93;100.00;103542.75;5083977;28;20025;-67
2022/01/23 01:12:45;;;;;;;15.10;7.80;;;;;;;7.57;100.00;103538.25;5082715;28;20035;-68
2022/01/23 01:31:29;;;;;;;16.67;8.50;;;;;;;8.09;100.00;103555.28;5085638;28;20181;-68
2022/01/23 01:34:03;;;;;;;11.90;7.88;;;;;;;7.62;100.00;103556.78;5086001;28;20036;-68
2022/01/23 01:36:39;;;;;;;14.43;8.35;;;;;;;8.04;100.00;103558.63;5084339;28;20121;-68
2022/01/23 01:39:06;;;;;;;13.45;9.05;;;;;;;7.93;100.00;103552.84;5080918;28;20363;-68
2022/01/23 01:41:35;;;;;;;11.95;8.65;;;;;;;8.05;100.00;103564.91;5086701;28;20042;-67
2022/01/23 01:44:01;;;;;;;14.18;8.10;;;;;;;7.97;100.00;103560.47;5086098;28;20043;-67
2022/01/23 01:46:28;;;;;;;14.38;7.82;;;;;;;7.59;100.00;103566.22;5085148;28;20040;-68
2022/01/23 01:48:54;;;;;;;15.65;8.32;;;;;;;7.95;100.00;103558.97;5085889;28;20056;-68
2022/01/23 01:51:20;;;;;;;15.23;7.97;;;;;;;8.11;100.00;103558.66;5085834;28;20019;-68
2022/01/23 01:53:53;;;;;;;13.18;8.07;;;;;;;8.01;100.00;103564.47;5083589;28;20051;-67
2022/01/23 01:56:18;;;;;;;15.15;7.25;;;;;;;8.16;100.00;103567.09;5104399;28;20027;-68
2022/01/23 02:09:26;;;;;;;13.13;6.18;;;;;;;8.03;100.00;103567.84;5103279;28;20124;-66
2022/01/23 02:12:20;;;;;;;13.15;6.47;;;;;;;8.20;100.00;103567.53;5106409;27;20779;-69
2022/01/23 02:23:20;;;;;;;12.02;6.20;;;;;;;8.28;100.00;103556.50;5105750;28;20085;-68
2022/01/23 02:53:19;;;;;;;15.52;7.55;;;;;;;7.97;100.00;103524.09;5090115;28;20058;-68
2022/01/23 02:55:45;;;;;;;13.00;7.30;;;;;;;8.01;100.00;103525.38;5104406;28;20506;-67
2022/01/23 02:58:13;;;;;;;13.88;7.72;;;;;;;8.23;100.00;103524.28;5089093;28;20238;-67
2022/01/23 03:01:02;;;;;;;13.27;7.68;;;;;;;8.27;100.00;103524.72;5083083;28;20340;-67
2022/01/23 03:03:27;;;;;;;14.40;7.68;;;;;;;8.12;100.00;103521.25;5080562;28;20028;-68
2022/01/23 03:06:23;;;;;;;16.40;8.10;;;;;;;8.21;100.00;103504.50;5083762;28;20059;-69
2022/01/23 03:14:11;;;;;;;12.65;7.70;;;;;;;8.41;100.00;103514.69;5083653;28;20020;-68
2022/01/23 03:30:24;;;;;;;15.48;7.78;;;;;;;8.32;100.00;103521.41;5081367;28;20501;-68
2022/01/23 03:32:51;;;;;;;17.13;7.55;;;;;;;8.42;100.00;103528.16;5085524;28;20036;-68
2022/01/23 03:35:19;;;;;;;15.30;7.63;;;;;;;8.42;100.00;103530.06;5084328;28;20036;-67
2022/01/23 03:37:46;;;;;;;15.20;8.10;;;;;;;8.16;100.00;103538.94;5078295;28;20501;-68
2022/01/23 03:40:12;;;;;;;17.00;8.15;;;;;;;8.08;100.00;103540.78;5084753;28;20031;-67
2022/01/23 03:42:41;;;;;;;16.48;7.95;;;;;;;8.17;100.00;103529.72;5082370;28;20032;-67
2022/01/23 03:45:33;;;;;;;13.82;8.15;;;;;;;8.21;100.00;103533.72;5083472;28;20061;-68
2022/01/23 03:49:30;;;;;;;17.77;7.88;;;;;;;7.97;100.00;103535.00;5082589;28;20031;-67
2022/01/23 03:50:42;;;;;;;17.02;7.47;;;;;;;8.02;100.00;103532.56;5080329;28;20044;-68
2022/01/23 03:53:08;;;;;;;19.63;8.70;;;;;;;8.08;100.00;103537.19;5080602;28;20028;-68
2022/01/23 03:55:35;;;;;;;17.00;9.40;;;;;;;8.28;100.00;103540.09;5081181;28;20035;-67
2022/01/23 03:58:01;;;;;;;12.60;8.50;;;;;;;8.31;100.00;103538.81;5082720;28;21297;-68
2022/01/23 04:00:26;;;;;;;14.43;8.43;;;;;;;8.39;100.00;103535.94;5093179;28;20034;-68
2022/01/23 04:02:52;;;;;;;14.40;7.85;;;;;;;8.40;100.00;103538.47;5104088;28;20038;-68
2022/01/23 04:05:17;;;;;;;14.48;8.38;;;;;;;8.38;100.00;103532.38;5104483;28;20261;-69
2022/01/23 04:07:43;;;;;;;16.17;8.73;;;;;;;8.30;100.00;103540.72;5099733;28;20108;-68
2022/01/23 04:10:11;;;;;;;12.07;7.75;;;;;;;8.38;100.00;103542.44;5104728;28;20038;-68
2022/01/23 04:20:50;;;;;;;13.63;8.75;;;;;;;8.40;100.00;103548.56;5105146;28;20203;-67
2022/01/23 04:33:45;;;;;;;13.77;8.93;;;;;;;8.37;100.00;103546.22;5097781;28;20045;-67
2022/01/23 05:00:35;;;;;;;13.55;9.23;;;;;;;8.42;100.00;103550.03;5102724;28;20046;-67
2022/01/23 05:05:48;;;;;;;17.60;10.07;;;;;;;8.40;100.00;103556.75;5104807;28;20240;-68
2022/01/23 05:08:18;;;;;;;19.58;11.45;;;;;;;8.40;100.00;103563.06;5087421;28;20043;-68
2022/01/23 05:10:43;;;;;;;19.95;10.93;;;;;;;8.39;100.00;103560.53;5104523;28;20039;-68
2022/01/23 05:13:09;;;;;;;16.50;10.40;;;;;;;8.37;100.00;103562.63;5105602;28;20040;-68
2022/01/23 05:15:35;;;;;;;15.38;10.20;;;;;;;8.34;100.00;103547.47;5108736;28;20131;-67
2022/01/23 05:18:00;;;;;;;22.27;11.80;;;;;;;8.33;100.00;103551.25;5106790;27;20024;-69
2022/01/23 05:20:29;;;;;;;16.92;12.40;;;;;;;8.29;100.00;103555.44;5105539;28;20034;-68
2022/01/23 05:23:00;;;;;;;16.38;11.30;;;;;;;8.31;100.00;103558.78;5085603;28;20031;-69
2022/01/23 05:25:30;;;;;;;18.95;11.95;;;;;;;8.38;100.00;103556.09;5089542;28;20035;-67
2022/01/23 05:27:56;;;;;;;20.45;12.48;;;;;;;8.35;100.00;103549.16;5084324;28;20020;-70
2022/01/23 05:30:22;;;;;;;19.40;13.65;;;;;;;8.34;100.00;103552.94;5085175;28;20355;-67
2022/01/23 05:32:48;;;;;;;19.25;12.68;;;;;;;8.31;100.00;103547.88;5084460;28;20187;-67
2022/01/23 05:35:17;;;;;;;18.88;12.43;;;;;;;8.36;100.00;103550.88;5085850;28;20538;-68
2022/01/23 05:37:42;;;;;;;18.65;12.65;;;;;;;8.39;100.00;103555.06;5081483;28;20032;-67
2022/01/23 05:40:12;;;;;;;22.92;13.27;;;;;;;8.33;100.00;103547.66;5088135;28;20032;-68
2022/01/23 05:42:37;;;;;;;19.65;13.45;;;;;;;8.25;100.00;103541.31;5082587;28;20481;-68
2022/01/23 05:45:03;;;;;;;17.90;12.70;;;;;;;8.18;100.00;103536.84;5068862;28;20051;-68
2022/01/23 05:47:29;;;;;;;23.85;13.70;;;;;;;8.20;100.00;103538.34;5083647;28;20036;-67
2022/01/23 05:49:54;;;;;;;22.98;13.10;;;;;;;8.21;100.00;103537.28;5088236;28;20102;-69
2022/01/23 05:52:20;;;;;;;22.60;12.40;;;;;;;8.17;100.00;103540.66;5104552;28;20646;-67
2022/01/23 05:54:46;;;;;;;19.02;12.18;;;;;;;8.27;100.00;103546.59;5104015;28;20031;-69
2022/01/23 05:57:11;;;;;;;19.88;12.02;;;;;;;8.28;100.00;103546.38;5106162;28;20050;-69
2022/01/23 05:59:36;;;;;;;20.52;12.93;;;;;;;8.31;100.00;103536.94;5087175;28;20028;-67
2022/01/23 06:02:02;;;;;;;17.80;11.82;;;;;;;8.33;100.00;103540.31;5105706;28;20047;-68
2022/01/23 06:04:29;;;;;;;18.10;11.98;;;;;;;8.36;100.00;103541.78;5104477;28;20023;-68
2022/01/23 06:06:59;;;;;;;16.33;12.13;;;;;;;8.38;100.00;103545.16;5086936;28;20024;-67
2022/01/23 06:09:25;;;;;;;19.63;13.20;;;;;;;8.34;100.00;103539.25;5086312;28;20032;-68
2022/01/23 06:11:53;;;;;;;17.83;11.82;;;;;;;8.24;100.00;103534.16;5085099;28;20410;-67
2022/01/23 06:14:19;;;;;;;19.13;12.18;;;;;;;8.26;100.00;103531.22;5067783;28;20039;-68
2022/01/23 06:16:45;;;;;;;21.25;12.50;;;;;;;8.37;100.00;103541.59;5049108;28;20033;-68
2022/01/23 06:19:10;;;;;;;17.42;11.77;;;;;;;8.26;100.00;103537.56;5089889;28;20036;-68
2022/01/23 06:21:36;;;;;;;19.77;11.77;;;;;;;7.97;100.00;103533.16;5105544;28;20266;-68
2022/01/23 06:24:06;;;;;;;23.23;12.82;;;;;;;7.95;100.00;103542.56;5103667;28;20486;-68
2022/01/23 06:26:56;;;;;;;19.73;12.70;;;;;;;7.98;100.00;103548.47;5104782;28;20069;-68
2022/01/23 06:29:23;;;;;;;17.30;11.88;;;;;;;8.07;100.00;103546.47;5107085;28;20027;-69
2022/01/23 06:31:53;;;;;;;18.80;12.23;;;;;;;8.01;100.00;103545.34;5102677;28;20023;-68
2022/01/23 06:34:19;;;;;;;21.92;13.13;;;;;;;7.47;100.00;103543.22;5103336;28;20083;-67
2022/01/23 06:36:45;;;;;;;24.33;10.95;;;;;;;7.57;100.00;103548.34;5104668;28;20036;-68
2022/01/23 06:39:13;;;;;;;16.85;9.02;;;;;;;7.62;100.00;103543.97;5101898;28;20028;-68
2022/01/23 06:41:39;;;;;;;12.93;9.30;;;;;;;7.93;100.00;103550.97;5105443;28;20027;-67
2022/01/23 06:44:06;;;;;;;15.82;10.68;;;;;;;8.04;100.00;103550.41;5107545;28;20511;-68
2022/01/23 06:46:33;;;;;;;13.30;9.30;;;;;;;8.13;100.00;103553.00;5107961;28;20062;-68
2022/01/23 06:49:00;;;;;;;15.57;10.20;;;;;;;8.21;100.00;103555.59;5083195;28;20353;-68
2022/01/23 06:51:25;;;;;;;19.00;12.00;;;;;;;8.29;100.00;103569.09;5085763;28;20036;-68
2022/01/23 06:53:52;;;;;;;15.85;10.82;;;;;;;8.27;100.00;103563.00;5100314;28;20107;-67
2022/01/23 06:56:17;;;;;;;16.67;10.38;;;;;;;8.31;100.00;103555.22;5106423;28;20039;-68
2022/01/23 06:58:43;;;;;;;16.48;12.05;;;;;;;8.44;100.00;103556.19;5084172;28;20190;-68
2022/01/23 07:01:09;;;;;;;16.60;11.00;;;;;;;8.44;100.00;103564.41;5084563;28;20513;-67
2022/01/23 07:03:36;;;;;;;16.88;10.95;;;;;;;8.40;100.00;103568.53;5080516;28;20379;-69
2022/01/23 07:06:02;;;;;;;15.90;11.35;;;;;;;8.46;100.00;103573.25;5083937;28;20028;-67
2022/01/23 07:08:27;;;;;;;20.77;11.60;;;;;;;8.30;100.00;103573.53;5097281;28;20042;-68
2022/01/23 07:10:52;;;;;;;17.35;12.63;;;;;;;8.24;100.00;103575.16;5103221;28;20152;-68
2022/01/23 07:13:18;;;;;;;17.55;13.00;;;;;;;8.22;100.00;103579.16;5104677;28;20122;-67
2022/01/23 07:15:43;;;;;;;20.17;13.20;;;;;;;8.14;100.00;103577.41;5101763;28;20039;-68
2022/01/23 07:18:09;;;;;;;20.15;13.50;;;;;;;8.16;100.00;103578.03;5104702;28;20027;-68
2022/01/23 07:20:36;;;;;;;18.08;12.75;;;;;;;8.35;100.00;103583.88;5103668;28;20039;-68
2022/01/23 07:23:01;;;;;;;19.27;13.75;;;;;;;8.03;100.00;103586.97;5082629;28;20023;-67
2022/01/23 07:25:27;;;;;;;22.00;14.52;;;;;;;8.27;100.00;103588.41;5103299;28;20039;-69
2022/01/23 07:27:56;;;;;;;17.88;13.40;;;;;;;8.27;100.00;103582.13;5084731;28;20061;-68
2022/01/23 07:32:49;;;;;;;20.42;13.52;;;;;;;8.28;100.00;103592.03;5102364;28;20023;-70
2022/01/23 07:35:15;;;;;;;20.30;12.65;;;;;;;8.35;100.00;103590.16;5102096;28;20484;-69
2022/01/23 07:37:41;;;;;;;19.33;13.15;;;;;;;8.40;100.00;103597.78;5063435;28;20131;-68
2022/01/23 07:40:07;;;;;;;18.10;12.70;;;;;;;8.04;100.00;103606.97;5085702;28;20027;-68
2022/01/23 07:42:32;;;;;;;19.58;13.02;;;;;;;7.59;100.00;103612.66;5104287;28;20629;-70
2022/01/23 07:44:58;;;;;;;21.25;13.70;;;;;;;7.69;100.00;103606.84;5078301;28;20482;-68
2022/01/23 07:47:23;;;;;;;19.58;13.55;;;;;;;7.89;100.00;103613.34;5088121;28;20027;-68
2022/01/23 07:49:50;;;;;;;19.02;13.00;;;;;;;7.82;100.00;103612.44;5068410;28;20057;-68
2022/01/23 07:52:19;;;;;;;20.80;14.02;;;;;;;7.91;100.00;103610.41;5083004;28;20753;-68
2022/01/23 07:54:45;;;;;;;21.98;14.77;;;;;;;8.04;100.00;103618.72;5082755;28;20076;-67
2022/01/23 07:57:11;;;;;;;20.13;13.82;;;;;;;8.04;100.00;103610.53;5101787;28;20024;-68
2022/01/23 07:59:37;;;;;;;19.42;13.60;;;;;;;8.07;100.00;103617.50;5100561;28;20040;-67
2022/01/23 08:02:03;;;;;;;18.08;13.77;;;;;;;8.18;100.00;103629.75;5083117;28;20183;-67
2022/01/23 08:04:29;;;;;;;18.35;12.50;;;;;;;8.22;100.00;103626.44;5096881;28;20521;-69
2022/01/23 08:07:13;;;;;;;20.27;13.05;;;;;;;8.44;100.00;103631.88;5079168;28;20032;-67
2022/01/23 08:09:39;;;;;;;19.13;13.57;;;;;;;8.48;100.00;103621.38;5082412;28;20383;-68
2022/01/23 08:12:05;;;;;;;21.80;14.38;;;;;;;8.49;100.00;103629.41;5064321;28;20031;-69
2022/01/23 08:14:31;;;;;;;19.42;13.65;;;;;;;8.53;100.00;103630.69;5081065;28;20035;-67
2022/01/23 08:16:56;;;;;;;20.27;14.55;;;;;;;8.56;100.00;103634.91;5081286;28;20034;-67
2022/01/23 08:19:21;;;;;;;21.85;14.00;;;;;;;8.56;100.00;103632.19;5082215;28;20028;-69
2022/01/23 08:21:47;;;;;;;24.08;14.30;;;;;;;8.57;100.00;103633.88;5081005;28;20129;-70
2022/01/23 08:24:12;;;;;;;18.55;13.25;;;;;;;8.55;100.00;103638.72;5080214;28;20020;-68
2022/01/23 08:26:38;;;;;;;23.33;14.80;;;;;;;8.46;100.00;103640.72;5084232;28;20032;-68
2022/01/23 08:29:07;;;;;;;26.95;15.68;;;;;;;8.51;100.00;103642.88;5087314;28;20032;-69
2022/01/23 08:31:33;;;;;;;27.25;15.60;;;;;;;8.52;100.00;103626.25;5082628;28;20388;-67
2022/01/23 08:33:58;;;;;;;23.60;15.50;;;;;;;8.59;100.00;103640.84;5079923;28;20240;-68
2022/01/23 08:36:24;;;;;;;22.50;16.15;;;;;;;8.59;100.00;103637.25;5083772;28;20164;-68
2022/01/23 08:38:49;;;;;;;23.38;16.33;;;;;;;8.48;100.00;103641.41;5082509;28;20161;-69
2022/01/23 08:43:48;;;;;;;24.08;16.70;;;;;;;8.38;100.00;103647.19;5084770;28;20114;-69
2022/01/23 08:46:23;;;;;;;23.73;17.08;;;;;;;8.49;100.00;103648.53;5088108;28;20028;-70
2022/01/23 08:48:48;;;;;;;23.45;16.27;;;;;;;8.56;100.00;103643.13;5048117;28;20038;-68
2022/01/23 08:51:14;;;;;;;29.05;18.40;;;;;;;8.58;100.00;103643.78;5068916;28;20032;-67
2022/01/23 08:53:40;;;;;;;28.02;18.70;;;;;;;8.65;100.00;103637.28;5096203;28;20511;-68
2022/01/23 08:56:05;;;;;;;27.25;18.73;;;;;;;8.75;100.00;103647.88;5104961;28;20059;-69
2022/01/23 08:58:31;;;;;;;26.77;18.55;;;;;;;8.86;100.00;103634.69;5096069;28;20032;-69
2022/01/23 09:00:58;;;;;;;26.85;18.10;;;;;;;8.89;100.00;103639.75;5065959;28;20039;-68
2022/01/23 09:03:23;;;;;;;25.63;18.48;;;;;;;8.95;100.00;103637.06;5105074;28;20118;-69
2022/01/23 09:05:55;;;;;;;24.85;18.65;;;;;;;8.98;100.00;103631.16;5103169;28;20123;-71
2022/01/23 09:08:21;;;;;;;25.85;18.42;;;;;;;9.01;100.00;103632.66;5101705;28;20031;-70
2022/01/23 09:10:56;;;;;;;27.08;19.52;;;;;;;9.07;100.00;103634.59;5087501;28;20073;-69
2022/01/23 09:16:06;;;;;;;28.60;19.55;;;;;;;9.11;100.00;103638.59;5086907;28;20043;-67
2022/01/23 09:18:32;;;;;;;28.23;19.30;;;;;;;9.16;100.00;103633.34;5106323;28;20073;-68
2022/01/23 09:20:57;;;;;;;28.60;19.55;;;;;;;9.21;100.00;103635.47;5104879;28;20135;-67
2022/01/23 09:23:23;;;;;;;31.10;20.02;;;;;;;9.24;100.00;103639.72;5104225;28;20036;-68
2022/01/23 09:25:49;;;;;;;28.55;20.33;;;;;;;9.22;100.00;103641.81;5104544;28;20019;-67
2022/01/23 09:28:17;;;;;;;29.50;20.30;;;;;;;8.74;100.00;103642.59;5103667;28;20027;-67
2022/01/23 09:30:48;;;;;;;26.75;18.73;;;;;;;8.98;100.00;103646.75;5088466;28;20184;-67
2022/01/23 09:33:14;;;;;;;26.02;18.65;;;;;;;9.08;100.00;103644.47;5103352;28;20027;-68
2022/01/23 09:35:40;;;;;;;29.33;19.70;;;;;;;9.09;100.00;103651.63;5104901;28;20044;-67
2022/01/23 09:38:05;;;;;;;30.73;20.17;;;;;;;9.15;100.00;103648.09;5083040;28;20774;-68
2022/01/23 09:40:31;;;;;;;29.10;19.75;;;;;;;9.16;100.00;103655.25;5105922;28;20130;-68
2022/01/23 09:43:06;;;;;;;31.38;20.30;;;;;;;9.26;100.00;103659.50;5101489;28;20036;-67
2022/01/23 09:45:32;;;;;;;27.13;17.90;;;;;;;9.12;100.00;103658.63;5106449;28;20031;-68
2022/01/23 09:48:01;;;;;;;27.73;19.40;;;;;;;9.20;100.00;103656.53;5102226;28;20030;-68
2022/01/23 09:50:26;;;;;;;32.63;20.35;;;;;;;9.22;100.00;103664.53;5106753;28;20033;-67
2022/01/23 09:52:58;;;;;;;27.85;18.50;;;;;;;9.35;100.00;103666.50;5100294;28;20047;-67
2022/01/23 09:55:26;;;;;;;27.67;18.33;;;;;;;9.42;100.00;103666.53;5106468;28;20488;-68
2022/01/23 09:57:52;;;;;;;30.67;21.15;;;;;;;9.51;100.00;103663.41;5100848;28;20031;-67
2022/01/23 10:00:24;;;;;;;30.08;19.13;;;;;;;9.58;100.00;103666.16;5106461;28;20132;-69
2022/01/23 10:02:50;;;;;;;26.70;20.05;;;;;;;9.63;100.00;103669.09;5105216;27;20028;-69
2022/01/23 10:05:17;;;;;;;30.08;20.08;;;;;;;9.60;100.00;103669.53;5103532;28;20042;-68
2022/01/23 10:07:43;;;;;;;28.38;20.27;;;;;;;9.67;100.00;103662.16;5103337;28;20042;-68
2022/01/23 10:10:19;;;;;;;29.88;18.80;;;;;;;9.77;100.00;103660.91;5104698;28;20055;-68
2022/01/23 10:12:51;;;;;;;26.95;19.55;;;;;;;9.72;100.00;103665.16;5105455;28;20032;-67
2022/01/23 10:15:18;;;;;;;27.73;18.92;;;;;;;9.78;100.00;103666.19;5102998;28;20110;-69
2022/01/23 10:17:44;;;;;;;31.33;20.17;;;;;;;9.86;100.00;103670.66;5106089;28;20064;-69
2022/01/23 10:20:11;;;;;;;27.13;18.95;;;;;;;9.85;100.00;103668.94;5089568;28;20032;-68
2022/01/23 10:22:37;;;;;;;24.77;18.58;;;;;;;9.87;100.00;103669.56;5082849;28;20055;-68
2022/01/23 10:25:07;;;;;;;28.70;19.38;;;;;;;9.93;100.00;103669.59;5083368;28;20078;-68
2022/01/23 10:27:52;;;;;;;28.10;19.80;;;;;;;9.94;100.00;103667.72;5084425;28;20296;-68
2022/01/23 10:30:24;;;;;;;26.05;20.42;;;;;;;10.05;100.00;103668.97;5084994;28;20118;-66
2022/01/23 10:33:03;;;;;;;27.23;19.63;;;;;;;10.02;100.00;103666.63;5082674;28;20046;-67
2022/01/23 10:35:32;;;;;;;27.25;20.10;;;;;;;10.06;100.00;103665.19;5083797;28;20120;-67
2022/01/23 10:38:05;;;;;;;32.58;21.42;;;;;;;10.14;100.00;103662.25;5081136;28;20024;-67
2022/01/23 10:40:36;;;;;;;30.45;20.50;;;;;;;10.11;100.00;103658.00;5084170;28;20031;-67
2022/01/23 10:48:46;;;;;;;25.67;17.52;;;;;;;10.12;100.00;103653.38;5086257;28;20108;-66
2022/01/23 10:51:14;;;;;;;28.02;18.85;;;;;;;10.10;100.00;103653.59;5104335;28;20111;-67
2022/01/23 10:54:01;;;;;;;28.20;19.38;;;;;;;10.11;100.00;103651.69;5104840;28;20036;-68
2022/01/23 10:56:29;;;;;;;28.58;19.00;;;;;;;10.19;100.00;103645.16;5105827;28;20035;-66
2022/01/23 10:59:00;;;;;;;24.83;18.83;;;;;;;10.40;100.00;103638.66;5101564;28;20034;-67
2022/01/23 11:01:27;;;;;;;28.55;18.73;;;;;;;10.53;100.00;103643.28;5104841;28;20085;-67
2022/01/23 11:04:13;;;;;;;25.85;17.42;;;;;;;10.65;100.00;103644.28;5107684;28;20066;-68
2022/01/23 11:06:58;;;;;;;29.50;17.92;;;;;;;10.74;100.00;103650.38;5104703;28;20461;-67
2022/01/23 11:09:36;;;;;;;25.70;18.58;;;;;;;10.80;100.00;103644.03;5100353;28;20034;-67
2022/01/23 11:12:13;;;;;;;30.52;18.80;;;;;;;10.81;100.00;103643.84;5101747;28;20027;-68
2022/01/23 11:17:24;;;;;;;23.25;17.38;;;;;;;10.79;100.00;103632.25;5104492;28;20030;-67
2022/01/23 11:19:58;;;;;;;24.42;17.45;;;;;;;10.74;100.00;103637.53;5104146;28;20027;-68
2022/01/23 11:22:28;;;;;;;27.08;17.85;;;;;;;10.74;100.00;103623.81;5101266;28;20336;-67
2022/01/23 11:24:58;;;;;;;20.70;16.60;;;;;;;10.65;100.00;103634.16;5102560;28;20298;-67
2022/01/23 11:27:32;;;;;;;17.35;13.15;;;;;;;10.43;100.00;103627.25;5102820;28;20551;-68
2022/01/23 11:30:13;;;;;;;18.65;13.00;;;;;;;10.56;100.00;103634.59;5102289;28;20023;-67
2022/01/23 11:32:41;;;;;;;16.38;12.93;;;;;;;10.52;100.00;103628.69;5103450;28;20481;-67
2022/01/23 11:35:15;;;;;;;18.60;12.23;;;;;;;10.46;100.00;103619.44;5091846;28;20425;-67
2022/01/23 11:37:51;;;;;;;17.75;11.35;;;;;;;10.52;100.00;103622.38;5081003;28;20038;-68
2022/01/23 11:54:02;;;;;;;6.57;4.13;;;;;;;10.54;100.00;103610.13;5081973;28;20579;-67
2022/01/23 11:56:36;;;;;;;9.45;5.00;;;;;;;10.35;100.00;103603.63;5083217;28;20038;-68
2022/01/23 11:59:11;;;;;;;9.27;5.18;;;;;;;10.39;100.00;103604.03;5096295;28;20042;-68
2022/01/23 12:01:39;;;;;;;8.95;4.60;;;;;;;10.56;100.00;103604.41;5102767;28;20024;-68
2022/01/23 12:04:17;;;;;;;4.78;3.38;;;;;;;10.09;100.00;103599.81;5102000;28;20027;-67
2022/01/23 12:06:44;;;;;;;3.10;2.10;;;;;;;10.20;100.00;103601.09;5104717;28;20032;-68
2022/01/23 12:09:09;;;;;;;5.97;3.85;;;;;;;10.42;100.00;103598.13;5092377;28;20054;-67
2022/01/23 12:11:56;;;;;;;6.57;5.00;;;;;;;10.44;100.00;103596.84;5083033;28;20019;-67
2022/01/23 12:16:58;;;;;;;8.05;5.80;;;;;;;10.65;100.00;103593.00;5083684;28;20417;-68
2022/01/23 12:19:29;;;;;;;10.10;6.57;;;;;;;10.65;100.00;103593.00;5076421;28;20050;-67
2022/01/23 12:22:02;;;;;;;7.85;6.30;;;;;;;10.71;100.00;103594.06;5082657;28;20073;-67
2022/01/23 12:24:27;;;;;;;7.80;6.63;;;;;;;10.65;100.00;103589.44;5081570;28;20032;-67
2022/01/23 12:27:23;;;;;;;9.35;7.90;;;;;;;9.80;100.00;103584.63;5082100;28;20383;-67
2022/01/23 12:29:50;;;;;;;8.85;7.05;;;;;;;10.27;100.00;103579.97;5083097;28;20054;-67
2022/01/23 12:32:29;;;;;;;11.23;7.68;;;;;;;10.17;100.00;103590.53;5063310;28;20038;-68
2022/01/23 12:35:05;;;;;;;7.57;6.82;;;;;;;10.28;100.00;103584.41;5082104;28;20514;-67
2022/01/23 12:37:55;;;;;;;11.68;7.82;;;;;;;10.21;100.00;103583.56;5080735;28;20044;-67
2022/01/23 12:40:26;;;;;;;10.73;7.50;;;;;;;10.30;100.00;103586.94;5078746;28;20664;-67
2022/01/23 12:43:17;;;;;;;10.40;8.18;;;;;;;10.29;100.00;103586.06;5082487;28;20587;-67
2022/01/23 12:45:53;;;;;;;12.30;9.15;;;;;;;10.19;100.00;103582.94;5080736;28;20464;-67
2022/01/23 12:48:25;;;;;;;11.27;8.68;;;;;;;10.29;100.00;103577.03;5078451;28;20219;-67
2022/01/23 12:50:53;;;;;;;10.40;7.88;;;;;;;10.16;100.00;103579.78;5096894;28;20050;-67
2022/01/23 12:53:19;;;;;;;11.60;8.05;;;;;;;10.31;100.00;103572.16;5086823;28;20039;-69
2022/01/23 12:56:03;;;;;;;8.55;7.65;;;;;;;10.36;100.00;103571.56;5081827;28;20043;-67
2022/01/23 12:58:31;;;;;;;9.15;8.23;;;;;;;10.04;100.00;103563.13;5083235;28;20019;-67
2022/01/23 13:00:58;;;;;;;12.00;8.75;;;;;;;10.23;100.00;103566.91;5102163;28;20315;-67
2022/01/23 13:03:26;;;;;;;12.38;9.63;;;;;;;10.28;100.00;103565.22;5093472;28;20525;-68
2022/01/23 13:05:51;;;;;;;10.65;9.20;;;;;;;10.40;100.00;103572.81;5081668;28;20393;-68
2022/01/23 13:08:22;;;;;;;13.02;8.75;;;;;;;10.08;100.00;103567.13;5087899;28;20040;-67
2022/01/23 13:13:37;;;;;;;11.07;9.75;;;;;;;9.91;100.00;103572.19;5078587;28;20107;-67
2022/01/23 13:32:04;;;;;;;13.43;11.20;;;;;;;9.83;100.00;103566.94;5085708;28;20020;-69
2022/01/23 13:34:37;;;;;;;14.35;12.85;;;;;;;9.85;100.00;103565.66;5083927;28;20096;-69
2022/01/23 13:37:12;;;;;;;15.15;12.02;;;;;;;9.98;100.00;103564.81;5082244;28;20478;-68
2022/01/23 13:39:49;;;;;;;13.95;12.25;;;;;;;9.96;100.00;103560.63;5086260;28;20242;-69
2022/01/23 13:53:29;;;;;;;15.05;13.07;;;;;;;9.90;100.00;103560.41;5102312;28;20529;-69
2022/01/23 13:58:42;;;;;;;14.80;12.55;;;;;;;9.82;100.00;103560.63;5107048;28;20039;-70
2022/01/23 14:03:53;;;;;;;15.45;13.27;;;;;;;9.87;100.00;103558.09;5105878;28;20031;-70
2022/01/23 14:06:19;;;;;;;16.65;14.65;;;;;;;9.84;100.00;103555.75;5094208;28;20031;-69
2022/01/23 14:09:03;;;;;;;17.38;14.70;;;;;;;9.77;100.00;103552.16;5083749;28;20039;-69
2022/01/23 14:11:29;;;;;;;17.80;14.88;;;;;;;9.78;100.00;103545.63;5085039;28;20109;-69
2022/01/23 14:13:54;;;;;;;16.63;14.25;;;;;;;9.68;100.00;103558.91;5085872;28;20028;-68
2022/01/23 14:16:27;;;;;;;16.98;15.18;;;;;;;9.61;100.00;103542.47;5084065;28;20059;-69
2022/01/23 14:18:52;;;;;;;18.60;14.52;;;;;;;9.66;100.00;103545.44;5084779;28;20032;-68
2022/01/23 14:21:19;;;;;;;18.23;14.63;;;;;;;9.42;100.00;103557.81;5067642;28;20101;-69
2022/01/23 14:23:54;;;;;;;16.02;14.30;;;;;;;9.22;100.00;103551.47;5083879;28;20511;-69
2022/01/23 14:26:21;;;;;;;16.25;14.07;;;;;;;9.12;100.00;103543.66;5086408;28;20038;-69
2022/01/23 14:28:50;;;;;;;15.35;13.68;;;;;;;9.02;100.00;103544.88;5067806;28;20039;-68
2022/01/23 14:31:22;;;;;;;17.65;13.88;;;;;;;9.51;100.00;103547.50;5084668;28;20044;-69
2022/01/23 14:33:52;;;;;;;16.77;13.50;;;;;;;9.68;100.00;103542.47;5085477;28;20031;-69
2022/01/23 14:36:20;;;;;;;16.65;13.50;;;;;;;9.55;100.00;103549.63;5091158;28;20050;-69
2022/01/23 14:39:05;;;;;;;14.88;12.45;;;;;;;9.74;100.00;103549.88;5104655;28;20023;-69
2022/01/23 14:41:34;;;;;;;15.25;13.00;;;;;;;9.67;100.00;103549.00;5105443;28;20137;-69
2022/01/23 14:44:05;;;;;;;15.05;12.50;;;;;;;9.61;100.00;103549.84;5104051;28;20782;-70
2022/01/23 14:46:31;;;;;;;20.27;13.93;;;;;;;9.36;100.00;103545.81;5104674;28;20078;-69